Time;durP1;ratioP1;P1;durP2;ratioP2;P2;SDS_P1;SDS_P2;PMS_P1;PMS_P2;Temp;Humidity;BMP_temperature;BMP_pressure;BME280_temperature;BME280_humidity;BME280_pressure;Samples;Min_cycle;Max_cycle;Signal;HPM_P1;HPM_P2
2022/01/27 00:01:39;;;;;;;;;;;5.20;99.90;;;3.11;100.00;101793.34;5086591;28;19925;-84
2022/01/27 00:04:13;;;;;;;;;;;5.20;99.90;;;3.13;100.00;101787.88;5085870;28;20038;-84
2022/01/27 00:06:41;;;;;;;;;;;5.20;99.90;;;3.01;100.00;101796.75;5086846;28;19928;-84
2022/01/27 00:09:20;;;;;;;;;;;5.30;99.90;;;3.00;100.00;101793.22;5086644;28;19963;-84
2022/01/27 00:11:48;;;;;;;;;;;5.20;99.90;;;3.02;100.00;101780.53;5086569;28;19960;-85
2022/01/27 00:14:18;;;;;;;;;;;5.20;99.90;;;3.03;100.00;101774.19;5086458;28;19933;-84
2022/01/27 00:16:55;;;;;;;;;;;5.20;99.90;;;3.06;100.00;101773.09;5085306;28;20074;-84
2022/01/27 00:19:22;;;;;;;;;;;5.20;99.90;;;3.04;100.00;101783.97;5085984;28;19925;-84
2022/01/27 00:21:49;;;;;;;;;;;5.20;99.90;;;3.02;100.00;101777.81;5086461;28;19928;-85
2022/01/27 00:24:17;;;;;;;;;;;5.20;99.90;;;3.04;100.00;101777.72;5086006;28;20028;-85
2022/01/27 00:26:44;;;;;;;;;;;5.20;99.90;;;2.99;100.00;101766.41;5086295;28;20011;-84
2022/01/27 00:29:11;;;;;;;;;;;5.20;99.90;;;2.98;100.00;101757.50;5085990;28;20011;-84
2022/01/27 00:31:38;;;;;;;;;;;5.10;99.90;;;2.97;100.00;101757.59;5086406;28;19925;-84
2022/01/27 00:34:07;;;;;;;;;;;5.20;99.90;;;2.94;100.00;101745.22;5085946;28;19939;-84
2022/01/27 00:36:34;;;;;;;;;;;5.20;99.90;;;2.99;100.00;101732.34;5086038;28;19924;-84
2022/01/27 00:39:02;;;;;;;;;;;5.10;99.90;;;2.95;100.00;101736.19;5086223;28;19956;-84
2022/01/27 00:41:29;;;;;;;;;;;5.10;99.90;;;2.97;100.00;101730.72;5086069;28;19956;-84
2022/01/27 00:43:56;;;;;;;;;;;5.20;99.90;;;2.98;100.00;101722.53;5095810;28;20386;-84
2022/01/27 00:46:24;;;;;;;;;;;5.10;99.90;;;2.96;100.00;101723.63;5106356;28;19924;-84
2022/01/27 00:48:51;;;;;;;;;;;5.10;99.90;;;2.92;100.00;101713.06;5106125;28;20035;-84
2022/01/27 00:51:23;;;;;;;;;;;5.10;99.90;;;2.94;100.00;101702.22;5104783;28;20346;-85
2022/01/27 00:53:55;;;;;;;;;;;5.10;99.90;;;3.01;100.00;101703.50;5106236;28;19928;-84
2022/01/27 00:56:28;;;;;;;;;;;5.10;99.90;;;3.06;100.00;101695.13;5072816;28;19924;-84
2022/01/27 00:59:05;;;;;;;;;;;5.10;99.90;;;3.10;100.00;101683.16;5084171;28;19963;-84
2022/01/27 01:01:36;;;;;;;;;;;5.10;99.90;;;3.09;100.00;101671.56;5092459;28;19928;-84
2022/01/27 01:04:07;;;;;;;;;;;5.10;99.90;;;3.11;100.00;101675.00;5092555;28;19924;-84
2022/01/27 01:06:40;;;;;;;;;;;5.10;99.90;;;3.04;100.00;101672.84;5091634;28;19924;-84
2022/01/27 01:12:25;;;;;;;;;;;5.10;99.90;;;3.04;100.00;101672.84;5092207;28;19924;-84
2022/01/27 01:14:54;;;;;;;;;;;5.10;99.90;;;2.92;100.00;101675.41;5086896;28;19932;-84
2022/01/27 01:20:29;;;;;;;;;;;5.10;99.90;;;2.92;100.00;101688.00;5042433;28;19944;-84
2022/01/27 01:31:28;;;;;;;;;;;5.10;99.90;;;3.03;100.00;101665.75;5091932;28;19931;-84
2022/01/27 01:34:10;;;;;;;;;;;5.10;99.90;;;3.01;100.00;101668.56;5091948;28;20037;-84
2022/01/27 01:36:45;;;;;;;;;;;5.30;99.90;;;3.02;100.00;101670.25;5091814;28;20400;-84
2022/01/27 01:39:14;;;;;;;;;;;5.10;99.90;;;2.99;100.00;101681.25;5091630;28;20016;-85
2022/01/27 01:41:41;;;;;;;;;;;5.00;99.90;;;3.02;100.00;101659.50;5091612;28;20039;-84
2022/01/27 01:44:09;;;;;;;;;;;5.00;99.90;;;2.98;100.00;101662.53;5091664;28;20010;-84
2022/01/27 01:46:37;;;;;;;;;;;5.20;99.90;;;2.96;100.00;101654.56;5091381;28;19932;-85
2022/01/27 01:49:04;;;;;;;;;;;5.00;99.90;;;2.96;100.00;101649.19;5090586;28;19928;-85
2022/01/27 01:51:32;;;;;;;;;;;5.00;99.90;;;2.91;100.00;101651.31;5090054;28;19928;-84
2022/01/27 01:54:00;;;;;;;;;;;5.10;99.90;;;2.87;100.00;101666.81;5091289;28;19924;-84
2022/01/27 01:56:28;;;;;;;;;;;5.00;99.90;;;2.86;100.00;101653.50;5090018;28;20027;-84
2022/01/27 01:58:55;;;;;;;;;;;5.00;99.90;;;2.84;100.00;101645.53;5090957;28;19971;-84
2022/01/27 02:01:23;;;;;;;;;;;5.00;99.90;;;2.82;100.00;101641.19;5091137;28;20027;-85
2022/01/27 02:03:50;;;;;;;;;;;5.00;99.90;;;2.90;100.00;101639.72;5090562;28;20018;-84
2022/01/27 02:06:24;;;;;;;;;;;5.00;99.90;;;2.93;100.00;101652.06;5089456;28;20065;-84
2022/01/27 02:09:08;;;;;;;;;;;5.00;99.90;;;2.93;100.00;101638.63;5090751;28;19935;-85
2022/01/27 02:19:53;;;;;;;;;;;5.00;99.90;;;2.97;100.00;101645.53;5090546;28;19974;-84
2022/01/27 02:22:21;;;;;;;;;;;5.00;99.90;;;2.97;100.00;101653.59;5090771;28;19924;-84
2022/01/27 02:24:48;;;;;;;;;;;5.10;99.90;;;2.91;100.00;101640.56;5090860;28;19934;-84
2022/01/27 02:27:16;;;;;;;;;;;5.00;99.90;;;2.84;100.00;101623.16;5090759;28;19976;-84
2022/01/27 02:29:44;;;;;;;;;;;5.00;99.90;;;2.91;100.00;101619.06;5089049;28;19924;-84
2022/01/27 02:32:12;;;;;;;;;;;5.00;99.90;;;2.98;100.00;101612.28;5090748;28;19927;-84
2022/01/27 02:34:39;;;;;;;;;;;5.10;99.90;;;3.03;100.00;101611.97;5090551;28;19924;-84
2022/01/27 02:37:08;;;;;;;;;;;5.10;99.90;;;3.01;100.00;101619.25;5090412;28;20431;-84
2022/01/27 02:39:35;;;;;;;;;;;5.10;99.90;;;2.98;100.00;101620.34;5090276;28;19924;-84
2022/01/27 02:42:07;;;;;;;;;;;5.10;99.90;;;2.89;100.00;101621.00;5090659;28;20296;-84
2022/01/27 02:44:44;;;;;;;;;;;5.10;99.90;;;2.91;100.00;101613.69;5090192;28;20461;-84
2022/01/27 02:47:11;;;;;;;;;;;5.10;99.90;;;3.01;100.00;101611.19;5090303;28;20379;-84
2022/01/27 02:49:38;;;;;;;;;;;5.10;99.90;;;2.98;100.00;101617.66;5090260;28;20386;-84
2022/01/27 02:52:06;;;;;;;;;;;5.10;99.90;;;3.01;100.00;101612.09;5090243;28;20016;-84
2022/01/27 02:54:35;;;;;;;;;;;5.10;99.90;;;2.96;100.00;101608.84;5090133;28;20018;-84
2022/01/27 02:57:04;;;;;;;;;;;5.10;99.90;;;2.85;100.00;101604.22;5090486;28;19928;-84
2022/01/27 02:59:31;;;;;;;;;;;5.10;99.90;;;2.95;100.00;101588.28;5088339;28;20365;-84
2022/01/27 03:01:59;;;;;;;;;;;5.10;99.90;;;2.97;100.00;101591.75;5090144;28;20403;-84
2022/01/27 03:04:26;;;;;;;;;;;5.10;99.90;;;3.00;100.00;101574.53;5089892;28;19928;-84
2022/01/27 03:06:54;;;;;;;;;;;5.10;99.90;;;3.05;100.00;101573.25;5090010;28;19959;-85
2022/01/27 03:09:21;;;;;;;;;;;5.10;99.90;;;3.05;100.00;101573.25;5089711;28;19930;-84
2022/01/27 03:11:52;;;;;;;;;;;5.10;99.90;;;3.10;100.00;101578.28;5090021;28;19967;-84
2022/01/27 03:14:21;;;;;;;;;;;5.10;99.90;;;3.04;100.00;101554.53;5089881;28;19935;-84
2022/01/27 03:16:49;;;;;;;;;;;5.10;99.90;;;3.02;100.00;101557.31;5089234;28;20407;-84
2022/01/27 03:19:16;;;;;;;;;;;5.10;99.90;;;2.99;100.00;101567.44;5089191;28;20025;-85
2022/01/27 03:21:46;;;;;;;;;;;5.10;99.90;;;3.05;100.00;101564.31;5088716;28;19928;-84
2022/01/27 03:24:15;;;;;;;;;;;5.10;99.90;;;3.05;100.00;101553.56;5089905;28;19975;-84
2022/01/27 03:26:43;;;;;;;;;;;5.10;99.90;;;3.09;100.00;101558.59;5089874;28;20254;-84
2022/01/27 03:29:12;;;;;;;;;;;5.10;99.90;;;3.10;100.00;101556.75;5089945;28;19930;-85
2022/01/27 03:31:39;;;;;;;;;;;5.10;99.90;;;3.05;100.00;101557.09;5089692;28;19994;-84
2022/01/27 03:34:06;;;;;;;;;;;5.10;99.90;;;3.07;100.00;101562.38;5089728;28;19928;-84
2022/01/27 03:36:33;;;;;;;;;;;5.10;99.90;;;3.12;100.00;101571.84;5089458;28;20039;-84
2022/01/27 03:39:00;;;;;;;;;;;5.10;99.90;;;3.18;100.00;101558.91;5089354;28;19924;-84
2022/01/27 03:41:32;;;;;;;;;;;5.20;99.90;;;3.15;100.00;101556.44;5089456;28;19934;-84
2022/01/27 03:43:59;;;;;;;;;;;5.20;99.90;;;3.08;100.00;101556.88;5087860;28;20299;-85
2022/01/27 03:46:27;;;;;;;;;;;5.20;99.90;;;3.10;100.00;101556.75;5089768;28;19934;-84
2022/01/27 03:48:55;;;;;;;;;;;5.20;99.90;;;3.15;100.00;101545.69;5089181;28;19971;-84
2022/01/27 03:51:22;;;;;;;;;;;5.20;99.90;;;3.18;100.00;101535.56;5089463;28;19928;-84
2022/01/27 03:53:49;;;;;;;;;;;5.20;99.90;;;3.17;100.00;101527.59;5089467;28;20463;-84
2022/01/27 03:56:17;;;;;;;;;;;5.20;99.90;;;3.14;100.00;101523.28;5089420;28;19931;-84
2022/01/27 03:58:44;;;;;;;;;;;5.20;99.90;;;3.19;100.00;101522.97;5089191;28;19975;-85
2022/01/27 04:01:11;;;;;;;;;;;5.20;99.90;;;3.25;100.00;101522.53;5089841;28;20396;-84
2022/01/27 04:03:39;;;;;;;;;;;5.20;99.90;;;3.21;100.00;101518.34;5089254;28;20426;-84
2022/01/27 04:06:08;;;;;;;;;;;5.20;99.90;;;3.26;100.00;101530.47;5088940;28;20319;-84
2022/01/27 04:08:37;;;;;;;;;;;5.20;99.90;;;3.21;100.00;101521.03;5088042;28;19963;-84
2022/01/27 04:11:05;;;;;;;;;;;5.20;99.90;;;3.20;100.00;101520.19;5088035;28;19934;-84
2022/01/27 04:13:32;;;;;;;;;;;5.20;99.90;;;3.20;100.00;101521.97;5087675;28;19928;-84
2022/01/27 04:16:03;;;;;;;;;;;5.20;99.90;;;3.20;100.00;101517.50;5089212;28;20028;-84
2022/01/27 04:18:32;;;;;;;;;;;5.20;99.90;;;3.27;100.00;101513.34;5088637;28;19963;-84
2022/01/27 04:21:01;;;;;;;;;;;5.20;99.90;;;3.23;100.00;101514.56;5089004;28;19928;-84
2022/01/27 04:23:28;;;;;;;;;;;5.20;99.90;;;3.26;100.00;101510.81;5088961;28;20017;-84
2022/01/27 04:25:55;;;;;;;;;;;5.30;99.90;;;3.17;100.00;101503.41;5088749;28;19931;-84
2022/01/27 04:28:26;;;;;;;;;;;5.30;99.90;;;3.22;100.00;101487.75;5088846;28;19963;-84
2022/01/27 04:30:55;;;;;;;;;;;5.30;99.90;;;3.25;100.00;101499.16;5091224;28;19932;-84
2022/01/27 04:33:24;;;;;;;;;;;5.30;99.90;;;3.26;100.00;101498.19;5092460;28;19939;-84
2022/01/27 04:35:54;;;;;;;;;;;5.30;99.90;;;3.26;100.00;101489.28;5093161;28;19977;-84
2022/01/27 04:38:28;;;;;;;;;;;5.30;99.90;;;3.25;100.00;101476.78;5092419;28;19924;-84
2022/01/27 04:41:03;;;;;;;;;;;5.20;99.90;;;3.28;100.00;101481.94;5092684;28;20022;-85
2022/01/27 04:43:37;;;;;;;;;;;5.20;99.90;;;3.31;100.00;101465.56;5092633;28;19924;-84
2022/01/27 04:46:14;;;;;;;;;;;5.20;99.90;;;3.37;100.00;101449.00;5091108;28;19928;-84
2022/01/27 04:48:45;;;;;;;;;;;5.20;99.90;;;3.36;100.00;101446.41;5092203;28;19928;-84
2022/01/27 04:51:15;;;;;;;;;;;5.20;99.90;;;3.28;100.00;101444.28;5092581;28;19924;-84
2022/01/27 04:53:48;;;;;;;;;;;5.20;99.90;;;3.21;100.00;101435.81;5072400;28;19924;-84
2022/01/27 04:56:17;;;;;;;;;;;5.20;99.90;;;3.24;100.00;101422.13;5084906;28;19928;-84
2022/01/27 04:58:46;;;;;;;;;;;5.20;99.90;;;3.25;100.00;101433.75;5092004;28;19932;-84
2022/01/27 05:01:15;;;;;;;;;;;5.20;99.90;;;3.26;100.00;101432.78;5092513;28;19963;-84
2022/01/27 05:03:46;;;;;;;;;;;5.30;99.90;;;3.24;100.00;101411.38;5092176;28;19967;-84
2022/01/27 05:06:16;;;;;;;;;;;5.30;99.90;;;3.24;100.00;101413.22;5092185;28;19939;-84
2022/01/27 05:08:44;;;;;;;;;;;5.20;99.90;;;3.30;100.00;101415.44;5092012;28;19972;-84
2022/01/27 05:11:17;;;;;;;;;;;5.20;99.90;;;3.29;100.00;101409.22;5092080;28;20465;-86
2022/01/27 05:13:48;;;;;;;;;;;5.20;99.90;;;3.34;100.00;101416.91;5091996;28;19931;-90
2022/01/27 05:16:15;;;;;;;;;;;5.30;99.90;;;3.30;100.00;101410.06;5090761;28;20651;-89
2022/01/27 05:18:42;;;;;;;;;;;5.30;99.90;;;3.30;100.00;101410.06;5091703;28;19970;-90
2022/01/27 05:21:09;;;;;;;;;;;5.30;99.90;;;3.40;100.00;101389.53;5090569;28;19959;-90
2022/01/27 05:23:36;;;;;;;;;;;5.30;99.90;;;3.37;100.00;101410.44;5086050;28;20579;-91
2022/01/27 05:26:05;;;;;;;;;;;5.30;99.90;;;3.27;100.00;101410.28;5089266;28;19935;-93
2022/01/27 05:28:32;;;;;;;;;;;5.30;99.90;;;3.26;100.00;101404.03;5091577;28;20026;-89
2022/01/27 05:31:00;;;;;;;;;;;5.30;99.90;;;3.34;100.00;101400.78;5092252;28;19928;-90
2022/01/27 05:33:27;;;;;;;;;;;5.20;99.90;;;3.38;100.00;101399.56;5090463;28;20442;-90
2022/01/27 05:35:54;;;;;;;;;;;5.30;99.90;;;3.36;100.00;101388.06;5090309;28;20044;-90
2022/01/27 05:38:21;;;;;;;;;;;5.30;99.90;;;3.35;100.00;101390.88;5090365;28;19930;-90
2022/01/27 05:40:48;;;;;;;;;;;5.30;99.90;;;3.40;100.00;101378.78;5090344;28;20019;-91
2022/01/27 05:43:16;;;;;;;;;;;5.30;99.90;;;3.45;100.00;101359.63;5091093;28;19924;-91
2022/01/27 05:45:44;;;;;;;;;;;5.50;99.90;;;3.43;100.00;101373.19;5078076;28;20362;-91
2022/01/27 05:48:11;;;;;;;;;;;5.30;99.90;;;3.41;100.00;101367.06;5087917;28;20298;-93
2022/01/27 05:50:39;;;;;;;;;;;5.40;99.90;;;3.46;100.00;101340.63;5090301;28;19974;-94
2022/01/27 05:53:06;;;;;;;;;;;5.40;99.90;;;3.43;100.00;101351.66;5090709;28;20026;-91
2022/01/27 05:55:33;;;;;;;;;;;5.30;99.90;;;3.40;100.00;101351.88;5091729;28;19960;-91
2022/01/27 05:58:00;;;;;;;;;;;5.40;99.90;;;3.44;100.00;101333.66;5091694;28;19972;-92
2022/01/27 06:00:29;;;;;;;;;;;5.40;99.90;;;3.45;100.00;101328.16;5090324;28;19928;-92
2022/01/27 06:02:56;;;;;;;;;;;5.40;99.90;;;3.44;100.00;101353.34;5090317;28;19974;-92
2022/01/27 06:05:23;;;;;;;;;;;5.40;99.90;;;3.50;100.00;101366.38;5090818;28;19924;-91
2022/01/27 06:07:50;;;;;;;;;;;5.40;99.90;;;3.51;100.00;101362.69;5091659;28;19928;-92
2022/01/27 06:10:17;;;;;;;;;;;5.40;99.90;;;3.48;100.00;101349.47;5091478;28;19924;-91
2022/01/27 06:12:49;;;;;;;;;;;5.50;99.90;;;3.53;100.00;101347.25;5090485;28;19966;-93
2022/01/27 06:15:17;;;;;;;;;;;5.40;99.90;;;3.58;100.00;101340.66;5090058;28;20001;-90
2022/01/27 06:17:45;;;;;;;;;;;5.50;99.90;;;3.60;100.00;101341.41;5092049;28;19983;-96
2022/01/27 06:20:13;;;;;;;;;;;5.50;99.90;;;3.57;100.00;101322.81;5090285;28;19924;-92
2022/01/27 06:22:40;;;;;;;;;;;5.50;99.90;;;3.61;100.00;101329.69;5091000;28;19928;-91
2022/01/27 06:25:08;;;;;;;;;;;5.50;99.90;;;3.58;100.00;101319.13;5089924;28;19932;-92
2022/01/27 06:27:35;;;;;;;;;;;5.50;99.90;;;3.67;100.00;101318.41;5090965;28;20022;-87
2022/01/27 06:30:05;;;;;;;;;;;5.60;99.90;;;3.65;100.00;101312.31;5088702;28;20390;-86
2022/01/27 06:32:32;;;;;;;;;;;5.60;99.90;;;3.63;100.00;101306.19;5070360;28;19924;-85
2022/01/27 06:35:03;;;;;;;;;;;5.60;99.90;;;3.68;100.00;101304.84;5081799;28;19928;-86
2022/01/27 06:37:31;;;;;;;;;;;5.70;99.90;;;3.77;100.00;101294.31;5087406;28;19955;-86
2022/01/27 06:39:58;;;;;;;;;;;5.60;99.90;;;3.87;100.00;101284.56;5090040;28;19937;-86
2022/01/27 06:42:26;;;;;;;;;;;5.60;99.90;;;3.86;100.00;101286.38;5090099;28;20031;-86
2022/01/27 06:44:53;;;;;;;;;;;5.60;99.90;;;3.88;100.00;101281.75;5090028;28;19928;-86
2022/01/27 06:47:20;;;;;;;;;;;5.60;99.90;;;3.86;100.00;101283.69;5090672;28;19958;-85
2022/01/27 06:49:47;;;;;;;;;;;5.70;99.90;;;3.82;100.00;101292.97;5090140;28;19924;-86
2022/01/27 06:52:15;;;;;;;;;;;5.70;99.90;;;3.88;100.00;101297.91;5090182;28;19928;-86
2022/01/27 06:54:43;;;;;;;;;;;5.70;99.90;;;3.89;100.00;101294.22;5089988;28;19924;-86
2022/01/27 06:57:10;;;;;;;;;;;5.80;99.90;;;3.96;100.00;101293.72;5090012;28;19928;-86
2022/01/27 06:59:37;;;;;;;;;;;5.90;99.90;;;3.99;100.00;101294.34;5090058;28;19977;-86
2022/01/27 07:02:04;;;;;;;;;;;5.80;99.90;;;4.04;100.00;101293.97;5090388;28;20497;-86
2022/01/27 07:04:31;;;;;;;;;;;5.80;99.90;;;4.08;100.00;101282.81;5090007;28;20001;-86
2022/01/27 07:06:58;;;;;;;;;;;5.90;99.90;;;4.14;100.00;101276.09;5088805;28;19931;-85
2022/01/27 07:09:27;;;;;;;;;;;5.90;99.90;;;4.19;100.00;101290.06;5089316;28;20471;-86
2022/01/27 07:11:54;;;;;;;;;;;5.90;99.90;;;4.20;100.00;101275.59;5090123;28;19993;-86
2022/01/27 07:14:21;;;;;;;;;;;6.00;99.90;;;4.26;100.00;101285.84;5089765;28;20575;-86
2022/01/27 07:16:48;;;;;;;;;;;5.90;99.90;;;4.33;100.00;101277.28;5090075;28;19956;-86
2022/01/27 07:19:15;;;;;;;;;;;6.00;99.90;;;4.36;100.00;101279.72;5087520;28;19959;-86
2022/01/27 07:21:42;;;;;;;;;;;6.00;99.90;;;4.34;100.00;101266.41;5088708;28;19962;-86
2022/01/27 07:24:09;;;;;;;;;;;6.10;99.90;;;4.39;100.00;101252.53;5088284;28;19924;-86
2022/01/27 07:26:37;;;;;;;;;;;6.10;99.90;;;4.41;100.00;101261.34;5090055;28;20031;-86
2022/01/27 07:29:04;;;;;;;;;;;6.10;99.90;;;4.41;100.00;101256.81;5088700;28;19987;-86
2022/01/27 07:31:31;;;;;;;;;;;6.20;99.90;;;4.36;100.00;101263.56;5088924;28;19960;-86
2022/01/27 07:33:58;;;;;;;;;;;6.20;99.90;;;4.36;100.00;101253.66;5088207;28;20392;-86
2022/01/27 07:36:26;;;;;;;;;;;6.20;99.90;;;4.39;100.00;101263.31;5087801;28;19959;-86
2022/01/27 07:38:53;;;;;;;;;;;6.20;99.90;;;4.38;100.00;101265.16;5089248;28;19928;-86
2022/01/27 07:41:20;;;;;;;;;;;6.20;99.90;;;4.36;100.00;101253.66;5088092;28;20157;-86
2022/01/27 07:43:49;;;;;;;;;;;6.20;99.90;;;4.36;100.00;101244.69;5089682;28;19928;-87
2022/01/27 07:46:16;;;;;;;;;;;6.30;99.90;;;4.36;100.00;101252.78;5089395;28;19934;-87
2022/01/27 07:48:44;;;;;;;;;;;6.30;99.90;;;4.41;100.00;101251.41;5089500;28;20039;-86
2022/01/27 07:51:11;;;;;;;;;;;6.30;99.90;;;4.51;100.00;101262.28;5089420;28;19963;-86
2022/01/27 07:53:40;;;;;;;;;;;6.30;99.90;;;4.49;100.00;101264.25;5089242;28;19928;-86
2022/01/27 07:56:07;;;;;;;;;;;6.30;99.90;;;4.50;100.00;101261.44;5089337;28;19932;-86
2022/01/27 07:58:38;;;;;;;;;;;6.30;99.90;;;4.53;100.00;101260.31;5089490;28;19924;-86
2022/01/27 08:01:08;;;;;;;;;;;6.30;99.90;;;4.48;100.00;101262.56;5089550;28;19997;-86
2022/01/27 08:03:36;;;;;;;;;;;6.30;99.90;;;4.48;100.00;101259.88;5085164;28;20402;-86
2022/01/27 08:06:04;;;;;;;;;;;6.30;99.90;;;4.49;100.00;101261.56;5082414;28;19931;-87
2022/01/27 08:08:34;;;;;;;;;;;6.30;99.90;;;4.49;100.00;101261.56;5086624;28;19931;-87
2022/01/27 08:11:02;;;;;;;;;;;6.30;99.90;;;4.47;100.00;101274.31;5089074;28;20023;-90
2022/01/27 08:13:30;;;;;;;;;;;6.40;99.90;;;4.45;100.00;101268.19;5072208;28;19934;-91
2022/01/27 08:15:57;;;;;;;;;;;6.40;99.90;;;4.47;100.00;101268.91;5077625;28;20002;-89
2022/01/27 08:18:25;;;;;;;;;;;6.40;99.90;;;4.53;100.00;101273.78;5087379;28;19963;-91
2022/01/27 08:20:52;;;;;;;;;;;6.40;99.90;;;4.55;100.00;101268.28;5073161;28;19932;-90
2022/01/27 08:23:20;;;;;;;;;;;6.40;99.90;;;4.51;100.00;101262.28;5079165;28;19930;-92
2022/01/27 08:25:53;;;;;;;;;;;6.50;99.90;;;4.58;100.00;101262.66;5073081;28;20039;-89
2022/01/27 08:28:27;;;;;;;;;;;6.40;99.90;;;4.55;100.00;101263.78;5091390;28;20123;-89
2022/01/27 08:30:56;;;;;;;;;;;6.40;99.90;;;4.52;100.00;101247.84;5093294;28;19924;-89
2022/01/27 08:33:28;;;;;;;;;;;6.40;99.90;;;4.48;100.00;101254.47;5091566;28;19967;-90
2022/01/27 08:35:56;;;;;;;;;;;6.40;99.90;;;4.43;100.00;101249.44;5093026;28;19928;-89
2022/01/27 08:38:23;;;;;;;;;;;6.40;99.90;;;4.43;100.00;101262.06;5083569;28;19932;-89
2022/01/27 08:40:50;;;;;;;;;;;6.40;99.90;;;4.52;100.00;101261.31;5084167;28;20338;-89
2022/01/27 08:43:17;;;;;;;;;;;6.40;99.90;;;4.54;100.00;101267.44;5082233;28;20040;-89
2022/01/27 08:45:46;;;;;;;;;;;6.40;99.90;;;4.47;100.00;101255.44;5086584;28;19967;-89
2022/01/27 08:48:17;;;;;;;;;;;6.40;99.90;;;4.51;100.00;101267.69;5089003;28;20010;-89
2022/01/27 08:50:52;;;;;;;;;;;6.40;99.90;;;4.55;100.00;101255.69;5092800;28;20015;-90
2022/01/27 08:53:19;;;;;;;;;;;6.40;99.90;;;4.57;100.00;101245.63;5091714;28;19932;-90
2022/01/27 08:55:48;;;;;;;;;;;6.40;99.90;;;4.63;100.00;101247.81;5091220;28;19928;-89
2022/01/27 08:58:15;;;;;;;;;;;6.40;99.90;;;4.63;100.00;101253.19;5086866;28;19971;-90
2022/01/27 09:00:42;;;;;;;;;;;6.40;99.90;;;4.64;100.00;101252.19;5092705;28;19935;-89
2022/01/27 09:03:10;;;;;;;;;;;6.50;99.90;;;4.64;100.00;101246.81;5092247;28;19960;-88
2022/01/27 09:05:37;;;;;;;;;;;6.50;99.90;;;4.67;100.00;101257.34;5091262;28;19928;-90
2022/01/27 09:08:06;;;;;;;;;;;6.50;99.90;;;4.63;100.00;101245.13;5083484;28;19938;-89
2022/01/27 09:10:33;;;;;;;;;;;6.60;99.90;;;4.65;100.00;101255.78;5086023;28;20439;-89
2022/01/27 09:13:01;;;;;;;;;;;6.60;99.90;;;4.68;100.00;101253.69;5091747;28;19924;-89
2022/01/27 09:15:28;;;;;;;;;;;6.60;99.90;;;4.71;100.00;101247.16;5092181;28;19982;-89
2022/01/27 09:17:58;;;;;;;;;;;6.50;99.90;;;4.65;100.00;101243.16;5081570;28;19924;-90
2022/01/27 09:20:26;;;;;;;;;;;6.60;99.90;;;4.68;100.00;101250.97;5082164;28;19963;-89
2022/01/27 09:22:56;;;;;;;;;;;6.60;99.90;;;4.68;100.00;101252.81;5084354;28;19929;-89
2022/01/27 09:25:30;;;;;;;;;;;6.60;99.90;;;4.69;100.00;101243.75;5083409;28;19927;-90
2022/01/27 09:27:58;;;;;;;;;;;6.60;99.90;;;4.66;100.00;101247.56;5080133;28;19928;-90
2022/01/27 09:30:26;;;;;;;;;;;6.70;99.90;;;4.74;100.00;101243.34;5082418;28;19975;-89
2022/01/27 09:32:55;;;;;;;;;;;6.60;99.90;;;4.77;100.00;101251.19;5088515;28;19967;-88
2022/01/27 09:35:23;;;;;;;;;;;6.60;99.90;;;4.82;100.00;101254.38;5090087;28;19962;-89
2022/01/27 09:37:50;;;;;;;;;;;6.60;99.90;;;4.84;100.00;101247.84;5090808;28;19924;-90
2022/01/27 09:40:18;;;;;;;;;;;6.60;99.90;;;4.86;100.00;101250.41;5089353;28;19928;-89
2022/01/27 09:42:50;;;;;;;;;;;6.60;99.90;;;4.84;100.00;101253.25;5091643;28;19930;-90
2022/01/27 09:45:18;;;;;;;;;;;6.70;99.90;;;4.86;100.00;101247.72;5091431;28;19936;-89
2022/01/27 09:47:53;;;;;;;;;;;6.70;99.90;;;4.85;100.00;101248.69;5088664;28;20011;-89
2022/01/27 09:50:48;;;;;;;;;;;6.60;99.90;;;4.86;100.00;101255.81;5082651;28;19928;-88
2022/01/27 09:53:16;;;;;;;;;;;6.70;99.90;;;4.83;100.00;101261.44;5086572;28;19930;-90
2022/01/27 09:55:43;;;;;;;;;;;6.70;99.90;;;4.89;100.00;101253.72;5083081;28;20035;-90
2022/01/27 09:58:12;;;;;;;;;;;6.70;99.90;;;4.89;100.00;101248.31;5086309;28;20342;-90
2022/01/27 10:00:39;;;;;;;;;;;6.70;99.90;;;4.92;100.00;101257.13;5090321;28;20023;-89
2022/01/27 10:03:09;;;;;;;;;;;6.70;99.90;;;4.95;100.00;101254.16;5090755;28;20006;-90
2022/01/27 10:05:37;;;;;;;;;;;6.80;99.90;;;4.95;100.00;101248.75;5091082;28;19938;-90
2022/01/27 10:08:08;;;;;;;;;;;6.80;99.90;;;5.00;100.00;101255.47;5089309;28;19931;-90
2022/01/27 10:10:37;;;;;;;;;;;6.80;99.90;;;5.03;100.00;101246.28;5090072;28;19924;-90
2022/01/27 10:13:07;;;;;;;;;;;6.80;99.90;;;5.03;100.00;101243.59;5070800;28;20369;-89
2022/01/27 10:15:39;;;;;;;;;;;6.80;99.90;;;5.05;100.00;101245.16;5086588;28;19971;-90
2022/01/27 10:18:10;;;;;;;;;;;6.80;99.90;;;5.05;100.00;101250.56;5085388;28;19928;-90
2022/01/27 10:20:40;;;;;;;;;;;6.80;99.90;;;5.03;100.00;101228.25;5102282;28;19928;-90
2022/01/27 10:23:12;;;;;;;;;;;6.80;99.90;;;5.02;100.00;101234.63;5089638;28;19944;-90
2022/01/27 10:25:46;;;;;;;;;;;6.90;99.90;;;5.06;100.00;101235.22;5083159;28;19985;-89
2022/01/27 10:28:30;;;;;;;;;;;6.90;99.90;;;5.12;100.00;101234.69;5088397;28;19981;-90
2022/01/27 10:31:04;;;;;;;;;;;6.90;99.90;;;5.13;100.00;101240.97;5090419;28;19928;-89
2022/01/27 10:33:49;;;;;;;;;;;6.90;99.90;;;5.15;100.00;101233.59;5089319;28;19928;-89
2022/01/27 10:36:19;;;;;;;;;;;6.90;99.90;;;5.09;100.00;101225.03;5089603;28;20003;-90
2022/01/27 10:38:46;;;;;;;;;;;6.90;99.90;;;5.15;100.00;101225.50;5090190;28;19972;-89
2022/01/27 10:41:13;;;;;;;;;;;6.90;99.90;;;5.11;100.00;101240.25;5088666;28;20379;-89
2022/01/27 10:43:41;;;;;;;;;;;6.90;99.90;;;5.12;100.00;101233.84;5089954;28;20398;-90
2022/01/27 10:46:14;;;;;;;;;;;7.00;99.90;;;5.18;100.00;101222.53;5087313;28;20238;-90
2022/01/27 10:48:45;;;;;;;;;;;7.00;99.90;;;5.20;100.00;101225.97;5085290;28;19939;-89
2022/01/27 10:51:20;;;;;;;;;;;7.00;99.90;;;5.24;100.00;101232.81;5083631;28;20321;-89
2022/01/27 10:53:53;;;;;;;;;;;7.00;99.90;;;5.30;100.00;101221.47;5085370;28;20026;-89
2022/01/27 10:56:23;;;;;;;;;;;7.00;99.90;;;5.34;100.00;101222.91;5086597;28;19928;-89
2022/01/27 10:58:50;;;;;;;;;;;7.10;99.90;;;5.31;100.00;101223.16;5086591;28;19931;-89
2022/01/27 11:01:27;;;;;;;;;;;7.10;99.90;;;5.36;100.00;101204.75;5084548;28;19986;-89
2022/01/27 11:03:56;;;;;;;;;;;7.10;99.90;;;5.38;100.00;101212.72;5087596;28;19968;-90
2022/01/27 11:06:25;;;;;;;;;;;7.10;99.90;;;5.35;100.00;101205.75;5087231;28;19936;-88
2022/01/27 11:08:55;;;;;;;;;;;7.10;99.90;;;5.36;100.00;101210.13;5085514;28;20399;-90
2022/01/27 11:11:24;;;;;;;;;;;7.20;99.90;;;5.41;100.00;101207.91;5086958;28;19924;-91
2022/01/27 11:13:52;;;;;;;;;;;7.20;99.90;;;5.41;100.00;101220.56;5088995;28;19928;-94
2022/01/27 11:16:23;;;;;;;;;;;7.20;99.90;;;5.38;100.00;101220.81;5090864;28;20376;-92
2022/01/27 11:18:59;;;;;;;;;;;7.20;99.90;;;5.39;100.00;101209.88;5090253;28;19956;-94
2022/01/27 11:21:33;;;;;;;;;;;7.20;99.90;;;5.39;100.00;101209.03;5090077;28;19930;-93
2022/01/27 11:24:14;;;;;;;;;;;7.20;99.90;;;5.38;100.00;101208.16;5090520;28;19928;-93
2022/01/27 11:26:43;;;;;;;;;;;7.20;99.90;;;5.49;100.00;101204.53;5089909;28;19935;-93
2022/01/27 11:29:12;;;;;;;;;;;7.20;99.90;;;5.46;100.00;101202.97;5090131;28;19934;-92
2022/01/27 11:31:46;;;;;;;;;;;7.20;99.90;;;5.44;100.00;101195.97;5085632;28;19928;-93
2022/01/27 11:34:14;;;;;;;;;;;7.20;99.90;;;5.45;100.00;101197.69;5087682;28;19928;-94
2022/01/27 11:37:00;;;;;;;;;;;7.20;99.90;;;5.51;100.00;101190.91;5090760;28;20445;-92
2022/01/27 11:39:49;;;;;;;;;;;7.20;99.90;;;5.52;100.00;101181.81;5086254;28;19974;-94
2022/01/27 11:42:19;;;;;;;;;;;7.30;99.90;;;5.54;100.00;101179.81;5091466;28;20015;-94
2022/01/27 11:44:48;;;;;;;;;;;7.30;99.90;;;5.54;100.00;101185.22;5080308;28;20023;-93
2022/01/27 11:47:22;;;;;;;;;;;7.30;99.90;;;5.59;100.00;101173.03;5082905;28;20025;-93
2022/01/27 11:50:04;;;;;;;;;;;7.30;99.90;;;5.57;100.00;101168.75;5090116;28;19924;-92